CGF3 weather

CLOSED Guliker Field
Hague, Saskatchewan, Canada

Public forecast

Using degrees Celsius for public forecast. Weather courtesy of forecast.io.

METAR (pilot weather report)

Closest report is Saskatoon John G. Diefenbaker International Airport, 24.6 nm (45.6 km) SSW. Retrieved 2019/05/25 22:00 UTC (22 minutes ago):

CYXE 252200Z 07013KT 15SM OVC018 10/06 A3004 RMK SC8 SLP189

TAF (pilot weather forecast)

Closest forecast is Saskatoon John G. Diefenbaker International Airport, 24.6 nm (45.6 km) SSW. Retrieved 2019/05/25 18:42 UTC (4 hours ago):

TAF CYXE 251739Z 2518/2618 05012KT P6SM -SHRA OVC008 BECMG 2518/2520 P6SM NSW SCT020 OVC150 FM260100 08010KT P6SM FEW060 SCT200 FM260600 16008KT P6SM SKC FM261100 15008KT P6SM BKN050 RMK NXT FCST BY 260000Z